sensor_id;sensor_type;location;lat;lon;timestamp;P1;durP1;ratioP1;P2;durP2;ratioP2
68825;SDS011;55841;53.392;10.086;2022-11-25T00:01:16;14.20;;;5.30;;
68825;SDS011;55841;53.392;10.086;2022-11-25T00:03:43;12.93;;;4.68;;
68825;SDS011;55841;53.392;10.086;2022-11-25T00:08:37;13.10;;;4.90;;
68825;SDS011;55841;53.392;10.086;2022-11-25T00:11:03;17.33;;;5.65;;
68825;SDS011;55841;53.392;10.086;2022-11-25T00:13:30;15.73;;;5.38;;
68825;SDS011;55841;53.392;10.086;2022-11-25T00:15:59;14.77;;;5.63;;
68825;SDS011;55841;53.392;10.086;2022-11-25T00:18:27;17.70;;;6.65;;
68825;SDS011;55841;53.392;10.086;2022-11-25T00:20:53;19.63;;;6.47;;
68825;SDS011;55841;53.392;10.086;2022-11-25T00:23:19;16.35;;;5.72;;
68825;SDS011;55841;53.392;10.086;2022-11-25T00:25:44;14.82;;;5.20;;
68825;SDS011;55841;53.392;10.086;2022-11-25T00:28:10;16.92;;;5.90;;
68825;SDS011;55841;53.392;10.086;2022-11-25T00:30:35;13.27;;;5.35;;
68825;SDS011;55841;53.392;10.086;2022-11-25T00:33:01;17.40;;;6.40;;
68825;SDS011;55841;53.392;10.086;2022-11-25T00:35:26;16.85;;;6.32;;
68825;SDS011;55841;53.392;10.086;2022-11-25T00:37:52;13.88;;;5.57;;
68825;SDS011;55841;53.392;10.086;2022-11-25T00:40:17;16.55;;;6.22;;
68825;SDS011;55841;53.392;10.086;2022-11-25T00:42:43;15.95;;;5.40;;
68825;SDS011;55841;53.392;10.086;2022-11-25T00:45:08;16.30;;;5.80;;
68825;SDS011;55841;53.392;10.086;2022-11-25T00:47:34;17.13;;;5.82;;
68825;SDS011;55841;53.392;10.086;2022-11-25T00:49:59;15.82;;;5.43;;
68825;SDS011;55841;53.392;10.086;2022-11-25T00:52:25;22.52;;;5.70;;
68825;SDS011;55841;53.392;10.086;2022-11-25T00:54:51;17.15;;;6.47;;
68825;SDS011;55841;53.392;10.086;2022-11-25T00:57:18;16.35;;;5.78;;
68825;SDS011;55841;53.392;10.086;2022-11-25T00:59:45;17.58;;;5.32;;
68825;SDS011;55841;53.392;10.086;2022-11-25T01:02:11;21.50;;;6.03;;
68825;SDS011;55841;53.392;10.086;2022-11-25T01:04:38;15.35;;;5.85;;
68825;SDS011;55841;53.392;10.086;2022-11-25T01:07:04;15.85;;;5.70;;
68825;SDS011;55841;53.392;10.086;2022-11-25T01:09:30;16.45;;;5.97;;
68825;SDS011;55841;53.392;10.086;2022-11-25T01:11:55;15.63;;;5.80;;
68825;SDS011;55841;53.392;10.086;2022-11-25T01:14:22;18.95;;;6.80;;
68825;SDS011;55841;53.392;10.086;2022-11-25T01:16:48;15.85;;;6.10;;
68825;SDS011;55841;53.392;10.086;2022-11-25T01:19:14;15.52;;;5.63;;
68825;SDS011;55841;53.392;10.086;2022-11-25T01:21:41;15.77;;;5.80;;
68825;SDS011;55841;53.392;10.086;2022-11-25T01:24:07;16.38;;;5.82;;
68825;SDS011;55841;53.392;10.086;2022-11-25T01:26:33;17.35;;;6.05;;
68825;SDS011;55841;53.392;10.086;2022-11-25T01:29:00;17.90;;;5.97;;
68825;SDS011;55841;53.392;10.086;2022-11-25T01:31:28;15.07;;;5.75;;
68825;SDS011;55841;53.392;10.086;2022-11-25T01:33:56;16.95;;;6.40;;
68825;SDS011;55841;53.392;10.086;2022-11-25T01:36:23;14.98;;;5.90;;
68825;SDS011;55841;53.392;10.086;2022-11-25T01:38:50;15.68;;;5.82;;
68825;SDS011;55841;53.392;10.086;2022-11-25T01:41:18;16.08;;;5.72;;
68825;SDS011;55841;53.392;10.086;2022-11-25T01:44:00;16.50;;;6.13;;
68825;SDS011;55841;53.392;10.086;2022-11-25T01:46:34;14.13;;;5.50;;
68825;SDS011;55841;53.392;10.086;2022-11-25T01:49:06;19.88;;;5.93;;
68825;SDS011;55841;53.392;10.086;2022-11-25T01:51:43;16.85;;;6.43;;
68825;SDS011;55841;53.392;10.086;2022-11-25T01:54:19;15.48;;;5.93;;
68825;SDS011;55841;53.392;10.086;2022-11-25T01:56:52;15.82;;;5.95;;
68825;SDS011;55841;53.392;10.086;2022-11-25T01:59:23;15.48;;;6.00;;
68825;SDS011;55841;53.392;10.086;2022-11-25T02:01:50;19.85;;;5.95;;
68825;SDS011;55841;53.392;10.086;2022-11-25T02:04:16;14.18;;;5.53;;
68825;SDS011;55841;53.392;10.086;2022-11-25T02:06:53;16.17;;;6.07;;
68825;SDS011;55841;53.392;10.086;2022-11-25T02:09:21;16.60;;;6.25;;
68825;SDS011;55841;53.392;10.086;2022-11-25T02:11:47;15.25;;;5.78;;
68825;SDS011;55841;53.392;10.086;2022-11-25T02:14:13;15.02;;;5.53;;
68825;SDS011;55841;53.392;10.086;2022-11-25T02:16:41;15.70;;;5.47;;
68825;SDS011;55841;53.392;10.086;2022-11-25T02:19:08;17.58;;;6.45;;
68825;SDS011;55841;53.392;10.086;2022-11-25T02:21:50;17.02;;;5.95;;
68825;SDS011;55841;53.392;10.086;2022-11-25T02:24:22;15.00;;;6.32;;
68825;SDS011;55841;53.392;10.086;2022-11-25T02:26:52;15.88;;;6.28;;
68825;SDS011;55841;53.392;10.086;2022-11-25T02:29:19;16.50;;;5.65;;
68825;SDS011;55841;53.392;10.086;2022-11-25T02:31:47;15.52;;;5.88;;
68825;SDS011;55841;53.392;10.086;2022-11-25T02:34:13;13.70;;;5.43;;
68825;SDS011;55841;53.392;10.086;2022-11-25T02:36:38;16.48;;;6.10;;
68825;SDS011;55841;53.392;10.086;2022-11-25T02:39:04;16.98;;;5.70;;
68825;SDS011;55841;53.392;10.086;2022-11-25T02:41:34;17.05;;;6.00;;
68825;SDS011;55841;53.392;10.086;2022-11-25T02:44:03;16.02;;;5.68;;
68825;SDS011;55841;53.392;10.086;2022-11-25T02:46:29;15.63;;;5.85;;
68825;SDS011;55841;53.392;10.086;2022-11-25T02:48:56;16.98;;;5.82;;
68825;SDS011;55841;53.392;10.086;2022-11-25T02:51:24;18.13;;;6.13;;
68825;SDS011;55841;53.392;10.086;2022-11-25T02:53:55;14.05;;;5.28;;
68825;SDS011;55841;53.392;10.086;2022-11-25T02:56:21;14.93;;;5.93;;
68825;SDS011;55841;53.392;10.086;2022-11-25T02:58:48;18.05;;;6.05;;
68825;SDS011;55841;53.392;10.086;2022-11-25T03:01:14;16.50;;;6.05;;
68825;SDS011;55841;53.392;10.086;2022-11-25T03:03:39;15.95;;;5.63;;
68825;SDS011;55841;53.392;10.086;2022-11-25T03:06:05;14.93;;;5.85;;
68825;SDS011;55841;53.392;10.086;2022-11-25T03:08:31;13.55;;;5.30;;
68825;SDS011;55841;53.392;10.086;2022-11-25T03:10:57;15.73;;;5.20;;
68825;SDS011;55841;53.392;10.086;2022-11-25T03:13:22;16.02;;;5.28;;
68825;SDS011;55841;53.392;10.086;2022-11-25T03:15:48;17.63;;;5.22;;
68825;SDS011;55841;53.392;10.086;2022-11-25T03:18:13;13.70;;;5.00;;
68825;SDS011;55841;53.392;10.086;2022-11-25T03:20:39;15.43;;;5.65;;
68825;SDS011;55841;53.392;10.086;2022-11-25T03:23:05;16.00;;;5.40;;
68825;SDS011;55841;53.392;10.086;2022-11-25T03:25:31;13.75;;;5.68;;
68825;SDS011;55841;53.392;10.086;2022-11-25T03:27:58;15.40;;;5.35;;
68825;SDS011;55841;53.392;10.086;2022-11-25T03:30:24;12.57;;;4.72;;
68825;SDS011;55841;53.392;10.086;2022-11-25T03:32:51;18.15;;;5.82;;
68825;SDS011;55841;53.392;10.086;2022-11-25T03:35:16;15.27;;;5.65;;
68825;SDS011;55841;53.392;10.086;2022-11-25T03:37:42;14.02;;;5.63;;
68825;SDS011;55841;53.392;10.086;2022-11-25T03:40:09;14.73;;;5.32;;
68825;SDS011;55841;53.392;10.086;2022-11-25T03:42:37;17.48;;;5.40;;
68825;SDS011;55841;53.392;10.086;2022-11-25T03:49:55;12.95;;;5.00;;
68825;SDS011;55841;53.392;10.086;2022-11-25T03:52:20;14.68;;;4.65;;
68825;SDS011;55841;53.392;10.086;2022-11-25T03:54:46;16.77;;;6.50;;
68825;SDS011;55841;53.392;10.086;2022-11-25T03:57:11;19.65;;;6.15;;
68825;SDS011;55841;53.392;10.086;2022-11-25T03:59:37;18.90;;;6.45;;
68825;SDS011;55841;53.392;10.086;2022-11-25T04:02:02;19.33;;;6.60;;
68825;SDS011;55841;53.392;10.086;2022-11-25T04:04:28;17.95;;;6.07;;
68825;SDS011;55841;53.392;10.086;2022-11-25T04:06:53;21.85;;;6.97;;
68825;SDS011;55841;53.392;10.086;2022-11-25T04:09:19;18.02;;;6.03;;
68825;SDS011;55841;53.392;10.086;2022-11-25T04:11:45;16.90;;;6.45;;
68825;SDS011;55841;53.392;10.086;2022-11-25T04:14:10;18.08;;;6.50;;
68825;SDS011;55841;53.392;10.086;2022-11-25T04:16:35;15.05;;;6.22;;
68825;SDS011;55841;53.392;10.086;2022-11-25T04:19:01;15.18;;;6.25;;
68825;SDS011;55841;53.392;10.086;2022-11-25T04:21:26;19.25;;;6.97;;
68825;SDS011;55841;53.392;10.086;2022-11-25T04:23:52;19.15;;;6.45;;
68825;SDS011;55841;53.392;10.086;2022-11-25T04:26:18;19.60;;;6.95;;
68825;SDS011;55841;53.392;10.086;2022-11-25T04:28:43;17.42;;;6.68;;
68825;SDS011;55841;53.392;10.086;2022-11-25T04:31:09;15.45;;;6.15;;
68825;SDS011;55841;53.392;10.086;2022-11-25T04:33:34;16.65;;;6.05;;
68825;SDS011;55841;53.392;10.086;2022-11-25T04:36:00;17.42;;;7.10;;
68825;SDS011;55841;53.392;10.086;2022-11-25T04:38:25;18.88;;;6.32;;
68825;SDS011;55841;53.392;10.086;2022-11-25T04:40:51;18.83;;;6.93;;
68825;SDS011;55841;53.392;10.086;2022-11-25T04:43:16;16.83;;;6.05;;
68825;SDS011;55841;53.392;10.086;2022-11-25T04:45:42;20.25;;;6.22;;
68825;SDS011;55841;53.392;10.086;2022-11-25T04:48:07;17.40;;;6.93;;
68825;SDS011;55841;53.392;10.086;2022-11-25T04:50:32;17.08;;;6.22;;
68825;SDS011;55841;53.392;10.086;2022-11-25T04:52:58;20.05;;;7.03;;
68825;SDS011;55841;53.392;10.086;2022-11-25T04:55:23;16.98;;;6.05;;
68825;SDS011;55841;53.392;10.086;2022-11-25T04:57:49;17.80;;;6.72;;
68825;SDS011;55841;53.392;10.086;2022-11-25T05:00:15;17.75;;;6.20;;
68825;SDS011;55841;53.392;10.086;2022-11-25T05:02:40;18.27;;;6.07;;
68825;SDS011;55841;53.392;10.086;2022-11-25T05:05:06;17.02;;;5.82;;
68825;SDS011;55841;53.392;10.086;2022-11-25T05:07:32;21.08;;;6.32;;
68825;SDS011;55841;53.392;10.086;2022-11-25T05:09:57;16.13;;;6.50;;
68825;SDS011;55841;53.392;10.086;2022-11-25T05:12:24;17.15;;;6.03;;
68825;SDS011;55841;53.392;10.086;2022-11-25T05:14:52;17.75;;;6.32;;
68825;SDS011;55841;53.392;10.086;2022-11-25T05:17:18;17.00;;;5.97;;
68825;SDS011;55841;53.392;10.086;2022-11-25T05:19:46;19.17;;;6.07;;
68825;SDS011;55841;53.392;10.086;2022-11-25T05:22:12;19.23;;;6.18;;
68825;SDS011;55841;53.392;10.086;2022-11-25T05:24:39;16.20;;;6.10;;
68825;SDS011;55841;53.392;10.086;2022-11-25T05:27:05;15.18;;;5.40;;
68825;SDS011;55841;53.392;10.086;2022-11-25T05:29:31;20.77;;;5.95;;
68825;SDS011;55841;53.392;10.086;2022-11-25T05:31:56;14.82;;;5.40;;
68825;SDS011;55841;53.392;10.086;2022-11-25T05:34:22;21.60;;;6.72;;
68825;SDS011;55841;53.392;10.086;2022-11-25T05:36:47;17.60;;;5.93;;
68825;SDS011;55841;53.392;10.086;2022-11-25T05:39:13;16.48;;;6.10;;
68825;SDS011;55841;53.392;10.086;2022-11-25T05:41:38;17.23;;;6.00;;
68825;SDS011;55841;53.392;10.086;2022-11-25T05:44:04;16.45;;;5.80;;
68825;SDS011;55841;53.392;10.086;2022-11-25T05:46:30;13.70;;;5.38;;
68825;SDS011;55841;53.392;10.086;2022-11-25T05:48:56;13.55;;;5.43;;
68825;SDS011;55841;53.392;10.086;2022-11-25T05:51:22;15.82;;;5.65;;
68825;SDS011;55841;53.392;10.086;2022-11-25T05:53:48;20.02;;;6.47;;
68825;SDS011;55841;53.392;10.086;2022-11-25T05:56:14;16.45;;;5.75;;
68825;SDS011;55841;53.392;10.086;2022-11-25T05:58:40;14.48;;;5.53;;
68825;SDS011;55841;53.392;10.086;2022-11-25T06:01:06;16.98;;;6.25;;
68825;SDS011;55841;53.392;10.086;2022-11-25T06:03:36;17.70;;;6.00;;
68825;SDS011;55841;53.392;10.086;2022-11-25T06:06:02;14.95;;;5.63;;
68825;SDS011;55841;53.392;10.086;2022-11-25T06:08:29;14.23;;;5.22;;
68825;SDS011;55841;53.392;10.086;2022-11-25T06:10:55;15.95;;;6.20;;
68825;SDS011;55841;53.392;10.086;2022-11-25T06:13:22;19.70;;;5.90;;
68825;SDS011;55841;53.392;10.086;2022-11-25T06:15:51;12.43;;;4.75;;
68825;SDS011;55841;53.392;10.086;2022-11-25T06:18:17;15.32;;;5.55;;
68825;SDS011;55841;53.392;10.086;2022-11-25T06:20:43;15.68;;;5.95;;
68825;SDS011;55841;53.392;10.086;2022-11-25T06:23:08;16.65;;;4.93;;
68825;SDS011;55841;53.392;10.086;2022-11-25T06:25:34;15.30;;;5.40;;
68825;SDS011;55841;53.392;10.086;2022-11-25T06:28:00;15.75;;;5.03;;
68825;SDS011;55841;53.392;10.086;2022-11-25T06:30:26;15.88;;;5.38;;
68825;SDS011;55841;53.392;10.086;2022-11-25T06:32:52;14.23;;;4.70;;
68825;SDS011;55841;53.392;10.086;2022-11-25T06:35:18;16.13;;;5.35;;
68825;SDS011;55841;53.392;10.086;2022-11-25T06:37:44;15.35;;;5.00;;
68825;SDS011;55841;53.392;10.086;2022-11-25T06:40:09;19.02;;;5.10;;
68825;SDS011;55841;53.392;10.086;2022-11-25T06:42:36;14.75;;;4.50;;
68825;SDS011;55841;53.392;10.086;2022-11-25T06:45:02;14.63;;;5.25;;
68825;SDS011;55841;53.392;10.086;2022-11-25T06:47:28;14.93;;;4.50;;
68825;SDS011;55841;53.392;10.086;2022-11-25T06:49:53;17.23;;;5.60;;
68825;SDS011;55841;53.392;10.086;2022-11-25T06:52:19;17.08;;;4.72;;
68825;SDS011;55841;53.392;10.086;2022-11-25T06:54:44;16.60;;;5.38;;
68825;SDS011;55841;53.392;10.086;2022-11-25T06:57:10;15.95;;;4.88;;
68825;SDS011;55841;53.392;10.086;2022-11-25T06:59:36;14.93;;;5.03;;
68825;SDS011;55841;53.392;10.086;2022-11-25T07:02:02;14.07;;;5.13;;
68825;SDS011;55841;53.392;10.086;2022-11-25T07:04:28;16.17;;;5.80;;
68825;SDS011;55841;53.392;10.086;2022-11-25T07:06:54;15.10;;;5.05;;
68825;SDS011;55841;53.392;10.086;2022-11-25T07:09:19;16.20;;;5.55;;
68825;SDS011;55841;53.392;10.086;2022-11-25T07:11:45;21.90;;;5.72;;
68825;SDS011;55841;53.392;10.086;2022-11-25T07:14:12;17.33;;;5.55;;
68825;SDS011;55841;53.392;10.086;2022-11-25T07:19:04;16.33;;;5.72;;
68825;SDS011;55841;53.392;10.086;2022-11-25T07:21:30;16.30;;;5.38;;
68825;SDS011;55841;53.392;10.086;2022-11-25T07:23:58;14.75;;;5.35;;
68825;SDS011;55841;53.392;10.086;2022-11-25T07:26:25;16.15;;;6.03;;
68825;SDS011;55841;53.392;10.086;2022-11-25T07:28:53;16.55;;;4.88;;
68825;SDS011;55841;53.392;10.086;2022-11-25T07:36:25;17.10;;;5.57;;
68825;SDS011;55841;53.392;10.086;2022-11-25T07:38:51;16.60;;;4.97;;
68825;SDS011;55841;53.392;10.086;2022-11-25T07:41:20;14.68;;;4.95;;
68825;SDS011;55841;53.392;10.086;2022-11-25T07:43:48;20.08;;;5.95;;
68825;SDS011;55841;53.392;10.086;2022-11-25T07:46:17;18.23;;;5.38;;
68825;SDS011;55841;53.392;10.086;2022-11-25T07:48:43;16.17;;;5.28;;
68825;SDS011;55841;53.392;10.086;2022-11-25T07:51:16;17.60;;;5.80;;
68825;SDS011;55841;53.392;10.086;2022-11-25T07:53:43;17.10;;;5.78;;
68825;SDS011;55841;53.392;10.086;2022-11-25T07:56:09;18.08;;;5.90;;
68825;SDS011;55841;53.392;10.086;2022-11-25T07:58:35;19.05;;;5.78;;
68825;SDS011;55841;53.392;10.086;2022-11-25T08:01:01;16.48;;;5.35;;
68825;SDS011;55841;53.392;10.086;2022-11-25T08:03:31;15.48;;;5.15;;
68825;SDS011;55841;53.392;10.086;2022-11-25T08:06:01;19.50;;;5.35;;
68825;SDS011;55841;53.392;10.086;2022-11-25T08:08:26;18.58;;;5.15;;
68825;SDS011;55841;53.392;10.086;2022-11-25T08:10:52;13.32;;;4.90;;
68825;SDS011;55841;53.392;10.086;2022-11-25T08:13:17;14.43;;;4.78;;
68825;SDS011;55841;53.392;10.086;2022-11-25T08:15:43;15.73;;;4.82;;
68825;SDS011;55841;53.392;10.086;2022-11-25T08:18:08;14.60;;;4.18;;
68825;SDS011;55841;53.392;10.086;2022-11-25T08:20:34;15.15;;;4.75;;
68825;SDS011;55841;53.392;10.086;2022-11-25T08:22:59;17.20;;;4.80;;
68825;SDS011;55841;53.392;10.086;2022-11-25T08:25:25;19.67;;;5.18;;
68825;SDS011;55841;53.392;10.086;2022-11-25T08:27:50;16.98;;;5.25;;
68825;SDS011;55841;53.392;10.086;2022-11-25T08:30:16;16.00;;;4.75;;
68825;SDS011;55841;53.392;10.086;2022-11-25T08:32:42;19.13;;;5.43;;
68825;SDS011;55841;53.392;10.086;2022-11-25T08:35:07;18.50;;;6.25;;
68825;SDS011;55841;53.392;10.086;2022-11-25T08:37:33;17.98;;;5.85;;
68825;SDS011;55841;53.392;10.086;2022-11-25T08:39:58;20.42;;;6.35;;
68825;SDS011;55841;53.392;10.086;2022-11-25T08:42:24;19.23;;;7.03;;
68825;SDS011;55841;53.392;10.086;2022-11-25T08:44:50;21.65;;;7.43;;
68825;SDS011;55841;53.392;10.086;2022-11-25T08:47:16;18.52;;;6.22;;
68825;SDS011;55841;53.392;10.086;2022-11-25T08:49:42;12.88;;;5.38;;
68825;SDS011;55841;53.392;10.086;2022-11-25T08:52:08;20.02;;;6.07;;
68825;SDS011;55841;53.392;10.086;2022-11-25T08:54:34;20.23;;;6.10;;
68825;SDS011;55841;53.392;10.086;2022-11-25T08:57:00;16.90;;;5.57;;
68825;SDS011;55841;53.392;10.086;2022-11-25T08:59:25;15.82;;;7.32;;
68825;SDS011;55841;53.392;10.086;2022-11-25T09:01:51;19.05;;;6.07;;
68825;SDS011;55841;53.392;10.086;2022-11-25T09:04:16;17.65;;;6.00;;
68825;SDS011;55841;53.392;10.086;2022-11-25T09:06:42;15.50;;;5.10;;
68825;SDS011;55841;53.392;10.086;2022-11-25T09:09:07;21.58;;;8.30;;
68825;SDS011;55841;53.392;10.086;2022-11-25T09:11:33;16.65;;;5.60;;
68825;SDS011;55841;53.392;10.086;2022-11-25T09:13:58;16.30;;;4.28;;
68825;SDS011;55841;53.392;10.086;2022-11-25T09:16:24;15.05;;;4.35;;
68825;SDS011;55841;53.392;10.086;2022-11-25T09:18:49;12.68;;;4.50;;
68825;SDS011;55841;53.392;10.086;2022-11-25T09:21:15;12.73;;;3.80;;
68825;SDS011;55841;53.392;10.086;2022-11-25T09:23:42;12.98;;;3.70;;
68825;SDS011;55841;53.392;10.086;2022-11-25T09:26:09;17.85;;;5.68;;
68825;SDS011;55841;53.392;10.086;2022-11-25T09:28:44;19.58;;;5.50;;
68825;SDS011;55841;53.392;10.086;2022-11-25T09:31:09;27.52;;;12.57;;
68825;SDS011;55841;53.392;10.086;2022-11-25T09:33:35;61.38;;;31.08;;
68825;SDS011;55841;53.392;10.086;2022-11-25T09:36:01;36.90;;;17.50;;
68825;SDS011;55841;53.392;10.086;2022-11-25T09:38:28;33.50;;;12.50;;
68825;SDS011;55841;53.392;10.086;2022-11-25T09:40:56;26.23;;;9.43;;
68825;SDS011;55841;53.392;10.086;2022-11-25T09:43:34;15.60;;;5.47;;
68825;SDS011;55841;53.392;10.086;2022-11-25T09:51:43;14.02;;;4.30;;
68825;SDS011;55841;53.392;10.086;2022-11-25T09:59:46;13.65;;;3.90;;
68825;SDS011;55841;53.392;10.086;2022-11-25T10:02:32;15.05;;;5.55;;
68825;SDS011;55841;53.392;10.086;2022-11-25T10:05:07;17.80;;;4.38;;
68825;SDS011;55841;53.392;10.086;2022-11-25T10:07:44;16.17;;;4.40;;
68825;SDS011;55841;53.392;10.086;2022-11-25T10:10:17;21.30;;;10.25;;
68825;SDS011;55841;53.392;10.086;2022-11-25T10:15:30;19.08;;;6.82;;
68825;SDS011;55841;53.392;10.086;2022-11-25T10:18:02;18.25;;;6.38;;
68825;SDS011;55841;53.392;10.086;2022-11-25T10:20:37;15.85;;;6.28;;
68825;SDS011;55841;53.392;10.086;2022-11-25T10:23:07;21.38;;;8.02;;
68825;SDS011;55841;53.392;10.086;2022-11-25T10:25:56;16.50;;;4.75;;
68825;SDS011;55841;53.392;10.086;2022-11-25T10:28:29;24.77;;;10.50;;
68825;SDS011;55841;53.392;10.086;2022-11-25T10:36:08;13.77;;;4.72;;
68825;SDS011;55841;53.392;10.086;2022-11-25T10:38:44;14.25;;;4.65;;
68825;SDS011;55841;53.392;10.086;2022-11-25T10:41:18;15.27;;;5.40;;
68825;SDS011;55841;53.392;10.086;2022-11-25T10:43:47;14.60;;;4.25;;
68825;SDS011;55841;53.392;10.086;2022-11-25T10:51:19;16.40;;;5.13;;
68825;SDS011;55841;53.392;10.086;2022-11-25T10:59:35;18.63;;;6.00;;
68825;SDS011;55841;53.392;10.086;2022-11-25T11:07:26;14.00;;;5.93;;
68825;SDS011;55841;53.392;10.086;2022-11-25T11:10:01;18.05;;;5.78;;
68825;SDS011;55841;53.392;10.086;2022-11-25T11:12:49;23.70;;;10.32;;
68825;SDS011;55841;53.392;10.086;2022-11-25T11:15:23;18.33;;;6.38;;
68825;SDS011;55841;53.392;10.086;2022-11-25T11:20:49;21.70;;;9.27;;
68825;SDS011;55841;53.392;10.086;2022-11-25T11:23:16;18.02;;;7.28;;
68825;SDS011;55841;53.392;10.086;2022-11-25T11:25:53;18.15;;;6.45;;
68825;SDS011;55841;53.392;10.086;2022-11-25T11:33:33;20.42;;;6.35;;
68825;SDS011;55841;53.392;10.086;2022-11-25T11:36:16;14.23;;;5.25;;
68825;SDS011;55841;53.392;10.086;2022-11-25T11:39:27;20.27;;;6.00;;
68825;SDS011;55841;53.392;10.086;2022-11-25T11:42:13;26.48;;;9.82;;
68825;SDS011;55841;53.392;10.086;2022-11-25T11:47:46;16.60;;;4.93;;
68825;SDS011;55841;53.392;10.086;2022-11-25T11:50:24;13.80;;;3.28;;
68825;SDS011;55841;53.392;10.086;2022-11-25T11:52:56;12.73;;;3.40;;
68825;SDS011;55841;53.392;10.086;2022-11-25T11:55:35;13.70;;;3.70;;
68825;SDS011;55841;53.392;10.086;2022-11-25T11:58:13;11.32;;;3.85;;
68825;SDS011;55841;53.392;10.086;2022-11-25T12:03:43;9.70;;;3.40;;
68825;SDS011;55841;53.392;10.086;2022-11-25T12:06:24;12.10;;;3.30;;
68825;SDS011;55841;53.392;10.086;2022-11-25T12:08:54;13.32;;;3.65;;
68825;SDS011;55841;53.392;10.086;2022-11-25T12:11:31;10.77;;;2.97;;
68825;SDS011;55841;53.392;10.086;2022-11-25T12:14:15;13.57;;;2.95;;
68825;SDS011;55841;53.392;10.086;2022-11-25T12:16:55;15.85;;;3.20;;
68825;SDS011;55841;53.392;10.086;2022-11-25T12:19:25;16.40;;;3.35;;
68825;SDS011;55841;53.392;10.086;2022-11-25T12:25:28;13.52;;;2.95;;
68825;SDS011;55841;53.392;10.086;2022-11-25T12:27:39;13.65;;;3.05;;
68825;SDS011;55841;53.392;10.086;2022-11-25T12:30:30;11.52;;;3.20;;
68825;SDS011;55841;53.392;10.086;2022-11-25T12:35:47;16.83;;;3.83;;
68825;SDS011;55841;53.392;10.086;2022-11-25T12:43:59;9.80;;;3.35;;
68825;SDS011;55841;53.392;10.086;2022-11-25T12:46:51;17.10;;;4.35;;
68825;SDS011;55841;53.392;10.086;2022-11-25T13:14:46;15.43;;;4.55;;
68825;SDS011;55841;53.392;10.086;2022-11-25T13:17:42;13.43;;;3.95;;
68825;SDS011;55841;53.392;10.086;2022-11-25T13:20:30;23.33;;;9.35;;
68825;SDS011;55841;53.392;10.086;2022-11-25T13:25:31;18.25;;;5.95;;
68825;SDS011;55841;53.392;10.086;2022-11-25T13:27:58;17.08;;;5.70;;
68825;SDS011;55841;53.392;10.086;2022-11-25T13:30:35;20.23;;;7.13;;
68825;SDS011;55841;53.392;10.086;2022-11-25T13:35:45;23.02;;;9.57;;
68825;SDS011;55841;53.392;10.086;2022-11-25T13:41:01;15.10;;;5.53;;
68825;SDS011;55841;53.392;10.086;2022-11-25T13:51:56;17.30;;;5.13;;
68825;SDS011;55841;53.392;10.086;2022-11-25T13:54:29;16.65;;;4.68;;
68825;SDS011;55841;53.392;10.086;2022-11-25T13:57:00;11.85;;;4.22;;
68825;SDS011;55841;53.392;10.086;2022-11-25T14:04:58;13.57;;;4.07;;
68825;SDS011;55841;53.392;10.086;2022-11-25T14:13:22;15.48;;;4.45;;
68825;SDS011;55841;53.392;10.086;2022-11-25T14:16:21;13.55;;;3.97;;
68825;SDS011;55841;53.392;10.086;2022-11-25T14:24:41;18.48;;;5.07;;
68825;SDS011;55841;53.392;10.086;2022-11-25T14:27:17;13.57;;;4.60;;
68825;SDS011;55841;53.392;10.086;2022-11-25T14:34:58;17.52;;;4.85;;
68825;SDS011;55841;53.392;10.086;2022-11-25T14:38:07;15.18;;;4.70;;
68825;SDS011;55841;53.392;10.086;2022-11-25T14:43:37;17.08;;;4.97;;
68825;SDS011;55841;53.392;10.086;2022-11-25T14:46:16;14.73;;;4.65;;
68825;SDS011;55841;53.392;10.086;2022-11-25T14:48:43;15.30;;;4.75;;
68825;SDS011;55841;53.392;10.086;2022-11-25T14:51:27;14.73;;;4.40;;
68825;SDS011;55841;53.392;10.086;2022-11-25T14:53:58;15.70;;;4.97;;
68825;SDS011;55841;53.392;10.086;2022-11-25T14:56:31;16.70;;;5.32;;
68825;SDS011;55841;53.392;10.086;2022-11-25T14:58:59;15.25;;;4.60;;
68825;SDS011;55841;53.392;10.086;2022-11-25T15:01:26;16.50;;;5.22;;
68825;SDS011;55841;53.392;10.086;2022-11-25T15:04:16;15.65;;;5.68;;
68825;SDS011;55841;53.392;10.086;2022-11-25T15:06:47;14.90;;;4.97;;
68825;SDS011;55841;53.392;10.086;2022-11-25T15:09:20;18.27;;;5.57;;
68825;SDS011;55841;53.392;10.086;2022-11-25T15:11:50;18.75;;;5.82;;
68825;SDS011;55841;53.392;10.086;2022-11-25T15:14:29;15.48;;;5.30;;
68825;SDS011;55841;53.392;10.086;2022-11-25T15:16:57;14.43;;;5.13;;
68825;SDS011;55841;53.392;10.086;2022-11-25T15:19:24;16.90;;;5.22;;
68825;SDS011;55841;53.392;10.086;2022-11-25T15:21:57;14.50;;;5.20;;
68825;SDS011;55841;53.392;10.086;2022-11-25T15:24:28;16.52;;;5.18;;
68825;SDS011;55841;53.392;10.086;2022-11-25T15:26:59;15.27;;;5.13;;
68825;SDS011;55841;53.392;10.086;2022-11-25T15:29:26;15.15;;;5.68;;
68825;SDS011;55841;53.392;10.086;2022-11-25T15:31:53;15.20;;;5.45;;
68825;SDS011;55841;53.392;10.086;2022-11-25T15:34:20;13.50;;;5.10;;
68825;SDS011;55841;53.392;10.086;2022-11-25T15:36:47;14.38;;;4.97;;
68825;SDS011;55841;53.392;10.086;2022-11-25T15:41:52;14.68;;;4.80;;
68825;SDS011;55841;53.392;10.086;2022-11-25T15:44:21;13.80;;;5.03;;
68825;SDS011;55841;53.392;10.086;2022-11-25T15:49:21;18.63;;;5.80;;
68825;SDS011;55841;53.392;10.086;2022-11-25T15:51:51;19.02;;;5.88;;
68825;SDS011;55841;53.392;10.086;2022-11-25T15:54:24;18.90;;;5.28;;
68825;SDS011;55841;53.392;10.086;2022-11-25T15:56:57;14.63;;;5.15;;
68825;SDS011;55841;53.392;10.086;2022-11-25T16:13:15;13.55;;;5.22;;
68825;SDS011;55841;53.392;10.086;2022-11-25T16:21:00;21.55;;;7.13;;
68825;SDS011;55841;53.392;10.086;2022-11-25T16:23:32;21.38;;;6.93;;
68825;SDS011;55841;53.392;10.086;2022-11-25T16:28:29;18.38;;;6.47;;
68825;SDS011;55841;53.392;10.086;2022-11-25T16:30:55;16.40;;;6.65;;
68825;SDS011;55841;53.392;10.086;2022-11-25T16:33:21;19.13;;;6.78;;
68825;SDS011;55841;53.392;10.086;2022-11-25T16:35:48;21.70;;;7.45;;
68825;SDS011;55841;53.392;10.086;2022-11-25T16:38:13;16.42;;;6.18;;
68825;SDS011;55841;53.392;10.086;2022-11-25T16:40:39;20.77;;;8.13;;
68825;SDS011;55841;53.392;10.086;2022-11-25T16:43:23;21.48;;;8.65;;
68825;SDS011;55841;53.392;10.086;2022-11-25T16:45:51;23.83;;;7.97;;
68825;SDS011;55841;53.392;10.086;2022-11-25T16:48:19;19.23;;;6.93;;
68825;SDS011;55841;53.392;10.086;2022-11-25T16:50:46;18.10;;;6.65;;
68825;SDS011;55841;53.392;10.086;2022-11-25T16:53:12;22.10;;;7.75;;
68825;SDS011;55841;53.392;10.086;2022-11-25T16:55:39;20.92;;;7.85;;
68825;SDS011;55841;53.392;10.086;2022-11-25T16:58:27;25.35;;;9.15;;
68825;SDS011;55841;53.392;10.086;2022-11-25T17:00:53;21.52;;;8.75;;
68825;SDS011;55841;53.392;10.086;2022-11-25T17:03:20;21.67;;;8.10;;
68825;SDS011;55841;53.392;10.086;2022-11-25T17:05:46;25.05;;;8.65;;
68825;SDS011;55841;53.392;10.086;2022-11-25T17:08:12;24.10;;;9.05;;
68825;SDS011;55841;53.392;10.086;2022-11-25T17:10:38;19.90;;;8.65;;
68825;SDS011;55841;53.392;10.086;2022-11-25T17:13:05;23.52;;;8.90;;
68825;SDS011;55841;53.392;10.086;2022-11-25T17:15:32;18.85;;;8.63;;
68825;SDS011;55841;53.392;10.086;2022-11-25T17:18:00;20.88;;;9.55;;
68825;SDS011;55841;53.392;10.086;2022-11-25T17:20:27;22.73;;;10.10;;